Time;durP1;ratioP1;P1;durP2;ratioP2;P2;SDS_P1;SDS_P2;PMS_P1;PMS_P2;Temp;Humidity;BMP_temperature;BMP_pressure;BME280_temperature;BME280_humidity;BME280_pressure;Samples;Min_cycle;Max_cycle;Signal;HPM_P1;HPM_P2
2022/02/02 00:02:19;;;;;;;2.70;1.60;;;;;;;0.20;73.24;95458.97;1756968;81;26322;-83
2022/02/02 00:04:44;;;;;;;2.67;1.52;;;;;;;0.24;73.18;95462.34;1756284;81;25702;-83
2022/02/02 00:07:26;;;;;;;2.67;1.62;;;;;;;0.29;73.20;95450.65;1754059;81;26536;-83
2022/02/02 00:09:41;;;;;;;2.45;1.20;;;;;;;0.30;73.05;95453.62;1748660;81;25662;-83
2022/02/02 00:14:47;;;;;;;2.40;1.22;;;;;;;0.28;72.93;95442.87;1751817;81;25762;-85
2022/02/02 00:17:08;;;;;;;2.60;1.35;;;;;;;0.27;73.06;95451.85;1748971;81;25780;-84
2022/02/02 00:22:23;;;;;;;2.42;1.30;;;;;;;0.26;73.30;95431.12;1751821;81;25717;-84
2022/02/02 00:24:41;;;;;;;3.52;1.57;;;;;;;0.29;73.51;95442.69;1742322;81;27504;-83
2022/02/02 00:27:04;;;;;;;3.50;1.98;;;;;;;0.30;73.45;95443.51;1750094;81;25770;-83
2022/02/02 00:29:34;;;;;;;2.58;1.55;;;;;;;0.30;73.63;95439.53;1751075;81;25753;-83
2022/02/02 00:32:05;;;;;;;4.10;1.40;;;;;;;0.30;73.69;95439.02;1751046;81;25694;-83
2022/02/02 00:34:27;;;;;;;2.42;1.20;;;;;;;0.30;73.75;95444.33;1750313;81;25695;-83
2022/02/02 00:36:57;;;;;;;1.57;1.00;;;;;;;0.31;73.70;95439.34;1751693;81;26903;-82
2022/02/02 00:39:26;;;;;;;0.70;0.57;;;;;;;0.31;73.60;95438.52;1751811;81;25816;-82
2022/02/02 00:41:58;;;;;;;0.95;0.70;;;;;;;0.27;73.35;95441.23;1751640;81;25731;-84
2022/02/02 00:44:34;;;;;;;1.90;1.10;;;;;;;0.26;73.57;95449.70;1751658;81;26737;-84
2022/02/02 00:47:03;;;;;;;3.05;1.15;;;;;;;0.29;73.64;95449.83;1751577;81;25688;-83
2022/02/02 00:49:30;;;;;;;2.42;1.12;;;;;;;0.29;73.70;95448.00;1751840;81;27428;-83
2022/02/02 00:51:58;;;;;;;1.20;1.00;;;;;;;0.31;73.75;95447.80;1751797;81;25287;-84
2022/02/02 00:54:28;;;;;;;1.87;0.90;;;;;;;0.33;73.75;95451.09;1752018;81;25718;-83
2022/02/02 00:56:56;;;;;;;2.00;0.82;;;;;;;0.31;73.62;95451.28;1751929;81;25775;-82
2022/02/02 00:59:24;;;;;;;1.22;0.70;;;;;;;0.28;73.96;95462.28;1751877;81;25703;-83
2022/02/02 01:01:52;;;;;;;1.25;0.70;;;;;;;0.22;74.08;95464.39;1751933;81;27366;-83
2022/02/02 01:04:19;;;;;;;1.35;0.85;;;;;;;0.22;74.27;95463.07;1751963;81;25828;-84
2022/02/02 01:06:57;;;;;;;0.72;0.50;;;;;;;0.22;74.50;95443.17;1723847;81;25784;-83
2022/02/02 01:12:07;;;;;;;2.25;0.88;;;;;;;0.20;74.86;95443.87;1751658;81;25812;-83
2022/02/02 01:15:20;;;;;;;1.50;0.93;;;;;;;0.15;75.03;95429.53;1748478;81;28218;-83
2022/02/02 01:17:14;;;;;;;0.75;0.45;;;;;;;0.14;75.10;95425.23;1747604;81;25813;-83
2022/02/02 01:19:38;;;;;;;1.52;0.70;;;;;;;0.17;75.10;95428.33;1749747;81;25762;-84
2022/02/02 01:30:03;;;;;;;1.62;1.05;;;;;;;0.19;75.23;95418.34;1760207;81;25764;-84
2022/02/02 01:32:29;;;;;;;1.35;0.98;;;;;;;0.24;75.09;95413.79;1760188;81;25762;-82
2022/02/02 01:34:56;;;;;;;1.77;0.93;;;;;;;0.24;75.03;95407.95;1760258;81;26695;-83
2022/02/02 01:37:22;;;;;;;0.93;0.60;;;;;;;0.27;75.01;95412.87;1760221;81;25799;-83
2022/02/02 01:39:57;;;;;;;1.20;0.72;;;;;;;0.28;75.04;95409.70;1760334;81;27600;-84
2022/02/02 01:42:19;;;;;;;1.12;0.75;;;;;;;0.27;74.91;95411.54;1758975;81;25949;-83
2022/02/02 01:44:54;;;;;;;0.82;0.65;;;;;;;0.28;74.99;95409.20;1760134;81;25764;-83
2022/02/02 01:47:14;;;;;;;1.60;0.90;;;;;;;0.30;75.11;95411.66;1758096;81;25806;-83
2022/02/02 01:50:10;;;;;;;1.75;0.55;;;;;;;0.31;75.09;95414.63;1759886;81;25785;-83
2022/02/02 01:55:05;;;;;;;2.65;0.90;;;;;;;0.30;74.99;95405.84;1759863;81;25767;-82
2022/02/02 01:59:57;;;;;;;1.17;0.70;;;;;;;0.33;75.27;95405.47;1760429;81;26347;-82
2022/02/02 02:02:24;;;;;;;1.05;0.70;;;;;;;0.36;75.39;95415.66;1760432;81;25659;-82
2022/02/02 02:04:51;;;;;;;0.85;0.70;;;;;;;0.38;75.29;95413.33;1760372;81;27529;-82
2022/02/02 02:07:18;;;;;;;1.77;0.90;;;;;;;0.40;75.46;95408.64;1760150;81;25764;-82
2022/02/02 02:09:44;;;;;;;1.80;0.70;;;;;;;0.42;75.51;95411.92;1760375;81;25689;-83
2022/02/02 02:12:12;;;;;;;0.65;0.50;;;;;;;0.40;75.54;95409.47;1760350;81;25956;-82
2022/02/02 02:14:47;;;;;;;0.98;0.55;;;;;;;0.41;75.54;95412.94;1760292;81;25336;-82
2022/02/02 02:17:10;;;;;;;0.55;0.55;;;;;;;0.41;75.60;95407.13;1759576;81;27630;-82
2022/02/02 02:19:40;;;;;;;1.90;0.80;;;;;;;0.44;75.67;95411.23;1760218;81;25717;-82
2022/02/02 02:22:10;;;;;;;1.27;0.68;;;;;;;0.41;75.79;95407.63;1760054;81;25263;-83
2022/02/02 02:24:39;;;;;;;0.85;0.68;;;;;;;0.41;75.86;95427.53;1760478;81;25773;-82
2022/02/02 02:27:06;;;;;;;1.15;0.80;;;;;;;0.40;75.55;95409.97;1760293;81;25816;-81
2022/02/02 02:29:47;;;;;;;1.05;0.75;;;;;;;0.41;75.73;95407.63;1760269;81;28320;-82
2022/02/02 02:56:37;;;;;;;0.85;0.60;;;;;;;0.42;75.94;95406.62;1760253;81;27409;-82
2022/02/02 02:59:09;;;;;;;1.35;0.78;;;;;;;0.44;76.22;95411.23;1759741;81;25762;-82
2022/02/02 03:32:31;;;;;;;0.80;0.50;;;;;;;0.60;75.98;95406.92;1760275;81;25716;-83
2022/02/02 03:51:21;;;;;;;1.37;0.57;;;;;;;0.78;75.78;95431.08;1760229;81;27411;-81
2022/02/02 04:01:53;;;;;;;0.70;0.42;;;;;;;0.81;75.68;95431.20;1760214;81;25756;-81
2022/02/02 04:04:16;;;;;;;0.80;0.60;;;;;;;0.80;75.62;95430.38;1755071;81;27463;-81
2022/02/02 04:06:32;;;;;;;0.60;0.40;;;;;;;0.79;75.56;95436.70;1757401;81;26340;-81
2022/02/02 04:08:59;;;;;;;2.27;0.80;;;;;;;0.79;75.67;95442.02;1761731;81;25778;-81
2022/02/02 04:11:53;;;;;;;3.72;1.50;;;;;;;0.78;75.71;95428.42;1763201;81;25718;-81
2022/02/02 04:17:15;;;;;;;0.95;0.55;;;;;;;0.77;75.84;95429.44;1762939;81;28296;-81
2022/02/02 04:38:59;;;;;;;1.55;0.82;;;;;;;0.70;76.15;95448.52;1733227;81;25807;-82
2022/02/02 04:54:51;;;;;;;0.75;0.60;;;;;;;0.77;76.27;95434.75;1763211;80;25262;-84
2022/02/02 04:57:58;;;;;;;2.37;0.90;;;;;;;0.78;76.27;95433.73;1762233;81;28333;-82
2022/02/02 05:10:31;;;;;;;2.62;0.85;;;;;;;0.91;76.42;95459.02;1754874;80;28165;-82
2022/02/02 05:18:17;;;;;;;1.50;1.00;;;;;;;0.93;76.35;95462.30;1728412;82;25766;-82
2022/02/02 05:21:05;;;;;;;2.30;1.25;;;;;;;0.92;76.31;95454.02;1724563;83;25789;-82
2022/02/02 05:52:36;;;;;;;2.58;1.40;;;;;;;1.02;76.39;95479.70;1728361;83;25773;-83
2022/02/02 05:55:04;;;;;;;4.15;1.87;;;;;;;1.02;76.32;95486.34;1728564;83;25792;-83
2022/02/02 05:57:33;;;;;;;2.25;1.47;;;;;;;1.01;76.29;95492.67;1728419;83;25837;-81
2022/02/02 06:00:00;;;;;;;19.85;10.90;;;;;;;1.02;76.35;95491.66;1728470;83;25758;-86
2022/02/02 06:02:33;;;;;;;9.63;5.15;;;;;;;1.00;76.43;95488.37;1728392;83;27526;-84
2022/02/02 06:05:07;;;;;;;2.52;1.60;;;;;;;1.00;76.55;95475.09;1728318;83;26241;-81
2022/02/02 06:07:40;;;;;;;4.53;1.42;;;;;;;0.96;76.66;95468.55;1728547;83;25757;-82
2022/02/02 06:10:12;;;;;;;3.72;1.90;;;;;;;1.01;76.74;95480.71;1730769;82;26451;-81
2022/02/02 06:12:42;;;;;;;17.90;6.17;;;;;;;1.02;76.82;95481.02;1732047;82;25945;-81
2022/02/02 06:15:13;;;;;;;22.40;9.25;;;;;;;1.00;76.75;95485.71;1731429;82;27550;-81
2022/02/02 06:17:44;;;;;;;9.35;5.12;;;;;;;0.99;76.79;95488.06;1731745;82;26276;-80
2022/02/02 06:20:11;;;;;;;12.35;5.75;;;;;;;0.98;76.75;95494.38;1732105;82;25757;-81
2022/02/02 06:22:54;;;;;;;6.55;3.90;;;;;;;0.98;76.91;95497.04;1713199;82;25855;-81
2022/02/02 06:25:32;;;;;;;8.98;4.72;;;;;;;0.99;77.03;95485.91;1702245;83;25874;-82
2022/02/02 06:28:02;;;;;;;7.30;3.60;;;;;;;1.01;77.15;95488.69;1702191;83;27410;-82
2022/02/02 06:30:30;;;;;;;5.90;3.12;;;;;;;1.04;77.21;95496.27;1701718;83;26261;-85
2022/02/02 06:33:11;;;;;;;3.75;1.87;;;;;;;1.07;77.38;95489.23;1702099;83;25695;-84
2022/02/02 06:35:38;;;;;;;3.67;1.82;;;;;;;1.12;77.43;95498.42;1702193;83;26559;-83
2022/02/02 06:38:06;;;;;;;2.50;1.67;;;;;;;1.16;77.39;95499.16;1702146;84;25242;-82
2022/02/02 06:40:33;;;;;;;4.42;2.15;;;;;;;1.21;77.47;95495.92;1727357;82;28442;-84
2022/02/02 06:43:00;;;;;;;2.92;1.60;;;;;;;1.21;77.42;95506.02;1701376;83;26292;-81
2022/02/02 06:45:28;;;;;;;5.92;1.90;;;;;;;1.22;77.49;95516.14;1727469;83;25413;-83
2022/02/02 06:47:54;;;;;;;8.08;3.15;;;;;;;1.25;77.54;95515.75;1725323;83;26900;-81
2022/02/02 06:50:29;;;;;;;7.40;3.40;;;;;;;1.27;77.38;95515.86;1701273;84;25791;-80
2022/02/02 06:53:28;;;;;;;9.80;3.80;;;;;;;1.27;77.36;95517.70;1695626;83;28435;-83
2022/02/02 06:56:25;;;;;;;9.20;4.60;;;;;;;1.25;77.29;95523.21;1700972;83;25710;-83
2022/02/02 06:59:14;;;;;;;8.63;4.08;;;;;;;1.23;77.36;95513.80;1696537;83;25850;-80
2022/02/02 07:05:04;;;;;;;8.60;3.62;;;;;;;1.21;77.48;95517.97;1696521;84;25769;-83
2022/02/02 07:07:50;;;;;;;13.48;6.00;;;;;;;1.19;77.41;95519.22;1724286;82;27578;-82
2022/02/02 07:10:40;;;;;;;17.27;9.60;;;;;;;1.20;77.41;95524.84;1671181;84;25787;-82
2022/02/02 07:13:28;;;;;;;16.50;9.40;;;;;;;1.16;77.35;95523.59;1725509;81;25772;-80
2022/02/02 07:18:50;;;;;;;13.70;7.10;;;;;;;1.13;77.59;95538.09;1728998;82;25857;-83
2022/02/02 07:31:31;;;;;;;13.13;4.85;;;;;;;1.17;77.62;95545.17;1724051;81;25484;-81
2022/02/02 07:33:51;;;;;;;11.97;5.28;;;;;;;1.17;77.69;95549.16;1696571;84;28437;-81
2022/02/02 07:36:31;;;;;;;13.22;6.40;;;;;;;1.20;77.78;95559.39;1699027;84;26214;-81
2022/02/02 07:39:12;;;;;;;12.88;6.22;;;;;;;1.22;77.82;95552.02;1697716;84;25545;-84
2022/02/02 07:41:42;;;;;;;11.05;6.30;;;;;;;1.23;77.83;95553.16;1698897;84;26362;-80
2022/02/02 07:44:17;;;;;;;13.68;6.35;;;;;;;1.27;77.81;95556.24;1697396;84;26164;-86
2022/02/02 07:46:52;;;;;;;13.28;7.22;;;;;;;1.29;77.82;95555.54;1698695;84;28219;-82
2022/02/02 07:49:23;;;;;;;17.32;7.37;;;;;;;1.33;77.80;95556.77;1698857;84;25723;-82
2022/02/02 07:51:51;;;;;;;20.77;9.00;;;;;;;1.35;77.81;95553.40;1723454;81;25725;-84
2022/02/02 07:54:23;;;;;;;16.95;9.13;;;;;;;1.40;78.00;95554.97;1701433;84;25767;-81
2022/02/02 07:56:47;;;;;;;10.82;6.53;;;;;;;1.44;78.13;95549.57;1726789;83;25689;-86
2022/02/02 07:59:21;;;;;;;17.52;7.85;;;;;;;1.49;78.13;95554.27;1727821;82;27991;-79
2022/02/02 08:01:51;;;;;;;18.90;8.45;;;;;;;1.48;78.14;95553.45;1727546;83;25752;-83
2022/02/02 08:04:22;;;;;;;12.58;6.30;;;;;;;1.53;78.24;95556.84;1727879;82;25716;-87
2022/02/02 08:06:53;;;;;;;9.75;4.67;;;;;;;1.63;78.19;95558.10;1727676;82;26522;-81
2022/02/02 08:09:47;;;;;;;6.03;2.98;;;;;;;1.66;78.26;95553.72;1727340;82;25768;-82
2022/02/02 08:11:47;;;;;;;6.53;2.90;;;;;;;1.73;78.21;95555.05;1749526;80;27365;-80
2022/02/02 08:14:14;;;;;;;4.47;2.42;;;;;;;1.79;78.03;95553.75;1746480;81;25756;-80
2022/02/02 08:16:41;;;;;;;7.22;3.65;;;;;;;1.84;77.99;95561.61;1746362;81;25653;-82
2022/02/02 08:19:07;;;;;;;4.78;3.12;;;;;;;1.90;78.05;95562.16;1746344;82;25696;-81
2022/02/02 08:21:34;;;;;;;8.38;3.08;;;;;;;1.93;78.06;95557.77;1721492;82;25860;-89
2022/02/02 08:24:01;;;;;;;5.28;2.72;;;;;;;1.98;78.08;95555.30;1726704;82;27400;-84
2022/02/02 08:26:27;;;;;;;15.32;6.47;;;;;;;2.03;78.10;95551.53;1725834;82;25894;-90
2022/02/02 08:28:57;;;;;;;18.95;7.30;;;;;;;2.10;78.12;95556.33;1724066;82;25728;-86
2022/02/02 08:31:26;;;;;;;11.68;5.67;;;;;;;2.17;78.20;95557.17;1725020;83;25771;-88
2022/02/02 08:33:53;;;;;;;9.28;5.08;;;;;;;2.25;78.20;95551.64;1753601;81;25816;-91
2022/02/02 08:36:20;;;;;;;15.13;6.05;;;;;;;2.29;78.05;95567.52;1752573;81;27466;-88
2022/02/02 08:41:37;;;;;;;8.78;3.50;;;;;;;2.32;77.93;95562.27;1752436;81;25796;-82
2022/02/02 08:44:09;;;;;;;14.10;5.90;;;;;;;2.36;77.92;95563.00;1750164;81;26367;-84
2022/02/02 08:46:35;;;;;;;15.28;7.25;;;;;;;2.40;77.87;95566.91;1750893;81;25737;-85
2022/02/02 08:49:05;;;;;;;13.80;6.25;;;;;;;2.41;77.75;95569.06;1752584;81;28140;-82
2022/02/02 08:51:36;;;;;;;13.38;6.08;;;;;;;2.41;77.80;95568.55;1753090;81;25840;-86
2022/02/02 08:59:08;;;;;;;9.65;5.40;;;;;;;2.41;77.59;95581.86;1724076;83;26443;-86
2022/02/02 09:01:32;;;;;;;8.90;4.53;;;;;;;2.38;77.57;95575.61;1750636;81;27593;-81
2022/02/02 09:06:40;;;;;;;8.65;4.53;;;;;;;2.36;77.46;95588.81;1753689;81;26393;-82
2022/02/02 09:09:17;;;;;;;11.95;5.15;;;;;;;2.36;77.51;95584.81;1753731;81;26346;-87
2022/02/02 09:25:53;;;;;;;8.75;4.45;;;;;;;2.50;77.46;95601.93;1757038;81;25845;-81
2022/02/02 09:36:08;;;;;;;9.20;5.42;;;;;;;2.46;77.42;95620.66;1757299;81;26709;-81
2022/02/02 09:38:34;;;;;;;20.65;9.78;;;;;;;2.43;77.35;95613.08;1757037;81;25736;-82
2022/02/02 09:41:30;;;;;;;9.10;4.87;;;;;;;2.41;77.43;95623.14;1757228;81;27399;-82
2022/02/02 09:43:47;;;;;;;8.28;3.98;;;;;;;2.34;77.34;95620.96;1754643;81;25796;-83
2022/02/02 09:46:17;;;;;;;11.93;5.45;;;;;;;2.37;77.52;95627.22;1757300;81;25796;-83
2022/02/02 09:48:50;;;;;;;10.23;4.55;;;;;;;2.39;77.66;95615.03;1757150;81;25809;-82
2022/02/02 09:51:15;;;;;;;18.80;10.03;;;;;;;2.44;77.74;95636.02;1755669;81;25756;-82
2022/02/02 09:53:45;;;;;;;10.53;5.72;;;;;;;2.46;77.68;95633.98;1756851;81;27426;-83
2022/02/02 10:01:40;;;;;;;19.52;11.43;;;;;;;2.47;77.54;95640.95;1757051;81;25882;-82
2022/02/02 10:04:04;;;;;;;14.73;7.72;;;;;;;2.50;77.60;95643.21;1753479;81;25880;-82
2022/02/02 10:07:25;;;;;;;28.52;15.90;;;;;;;2.54;77.62;95642.27;1751286;81;27379;-83
2022/02/02 10:14:29;;;;;;;11.68;4.45;;;;;;;2.54;77.36;95641.76;1753531;81;26678;-86
2022/02/02 10:16:56;;;;;;;6.58;3.50;;;;;;;2.57;77.23;95651.70;1754039;81;25760;-82
2022/02/02 10:19:26;;;;;;;9.38;3.40;;;;;;;2.58;77.12;95658.16;1754130;81;27395;-83
2022/02/02 10:21:53;;;;;;;8.85;4.62;;;;;;;2.59;76.97;95646.48;1753950;81;25776;-83
2022/02/02 10:24:44;;;;;;;17.25;7.37;;;;;;;2.63;76.87;95653.05;1753811;81;26176;-84
2022/02/02 10:27:34;;;;;;;10.08;4.15;;;;;;;2.71;76.69;95653.35;1752941;81;25714;-82
2022/02/02 10:30:09;;;;;;;10.43;3.95;;;;;;;2.75;76.52;95650.59;1726791;83;25689;-82
2022/02/02 10:32:43;;;;;;;9.10;3.08;;;;;;;2.80;76.48;95664.10;1727028;83;28284;-82
2022/02/02 10:35:29;;;;;;;12.65;3.98;;;;;;;2.79;76.31;95651.80;1727305;83;25653;-84
2022/02/02 10:38:01;;;;;;;32.33;17.10;;;;;;;2.81;76.27;95655.91;1727365;83;25785;-84
2022/02/02 10:40:55;;;;;;;11.55;5.67;;;;;;;2.86;76.30;95660.63;1754120;81;26954;-83
2022/02/02 10:43:42;;;;;;;9.23;3.30;;;;;;;2.89;76.18;95657.56;1753913;81;26326;-81
2022/02/02 10:46:11;;;;;;;7.90;3.37;;;;;;;2.85;75.94;95657.15;1727245;83;27395;-82
2022/02/02 10:48:44;;;;;;;9.90;3.37;;;;;;;2.87;75.95;95656.95;1754040;81;25657;-83
2022/02/02 10:51:15;;;;;;;13.05;5.40;;;;;;;2.88;75.94;95662.58;1726480;83;25730;-86
2022/02/02 10:54:01;;;;;;;9.10;4.22;;;;;;;2.93;75.83;95658.77;1725917;83;25729;-82
2022/02/02 10:59:17;;;;;;;10.48;3.90;;;;;;;2.96;75.34;95659.70;1704098;81;28226;-83
2022/02/02 11:01:47;;;;;;;7.15;3.05;;;;;;;2.99;75.29;95664.63;1750325;81;25701;-81
2022/02/02 11:06:54;;;;;;;8.55;2.80;;;;;;;3.12;75.13;95685.94;1753790;81;25812;-81
2022/02/02 11:09:21;;;;;;;8.33;2.90;;;;;;;3.17;74.96;95682.13;1754068;81;26572;-82
2022/02/02 11:11:53;;;;;;;7.90;2.70;;;;;;;3.29;74.88;95686.82;1753844;81;28289;-85
2022/02/02 11:14:49;;;;;;;7.40;2.75;;;;;;;3.34;74.63;95685.19;1753854;81;27455;-83
2022/02/02 11:17:46;;;;;;;7.90;3.05;;;;;;;3.37;74.47;95680.78;1754023;81;25851;-81
2022/02/02 11:20:15;;;;;;;7.12;2.85;;;;;;;3.39;74.29;95684.55;1754148;81;25733;-82
2022/02/02 11:22:52;;;;;;;10.38;3.22;;;;;;;3.36;74.08;95687.65;1754121;81;25722;-81
2022/02/02 11:25:33;;;;;;;7.65;3.05;;;;;;;3.35;74.00;95691.34;1751860;81;28187;-81
2022/02/02 11:27:59;;;;;;;10.03;3.98;;;;;;;3.30;73.83;95693.80;1753590;81;25303;-83
2022/02/02 11:30:32;;;;;;;10.03;3.40;;;;;;;3.29;73.72;95701.48;1753941;81;25794;-82
2022/02/02 11:33:18;;;;;;;10.23;3.12;;;;;;;3.29;73.63;95703.64;1754149;81;26560;-85
2022/02/02 11:35:49;;;;;;;10.98;3.85;;;;;;;3.30;73.61;95705.80;1754068;81;25711;-82
2022/02/02 11:38:35;;;;;;;6.60;3.27;;;;;;;3.30;73.56;95703.13;1754002;81;27366;-84
2022/02/02 11:41:17;;;;;;;9.73;3.98;;;;;;;3.39;73.57;95705.37;1754103;81;25730;-82
2022/02/02 11:44:26;;;;;;;8.63;3.67;;;;;;;3.46;73.46;95704.86;1753483;81;25978;-83
2022/02/02 11:50:00;;;;;;;13.85;5.33;;;;;;;3.82;73.41;95711.53;1754105;81;25709;-83
2022/02/02 11:52:49;;;;;;;11.55;4.97;;;;;;;3.93;72.96;95708.21;1752195;81;27408;-82
2022/02/02 11:55:33;;;;;;;11.22;4.50;;;;;;;4.01;72.83;95709.81;1753946;81;25275;-82
2022/02/02 11:58:16;;;;;;;12.25;4.95;;;;;;;4.06;72.51;95715.34;1754187;81;25858;-81
2022/02/02 12:01:01;;;;;;;12.20;4.35;;;;;;;4.07;72.40;95706.31;1754136;81;26465;-83
2022/02/02 12:04:05;;;;;;;10.50;5.00;;;;;;;4.06;72.22;95707.34;1752869;81;25731;-83
2022/02/02 12:06:34;;;;;;;16.17;6.78;;;;;;;4.05;72.08;95709.70;1751844;81;27317;-82
2022/02/02 12:47:16;;;;;;;12.05;5.05;;;;;;;3.67;70.74;95761.66;1757217;81;27472;-84
2022/02/02 12:50:02;;;;;;;17.20;5.15;;;;;;;3.60;70.54;95761.69;1755904;81;25689;-83
2022/02/02 12:57:49;;;;;;;15.03;5.75;;;;;;;3.48;70.63;95772.16;1757281;81;25665;-86
2022/02/02 13:00:23;;;;;;;13.35;5.25;;;;;;;3.47;70.60;95775.03;1756536;81;28190;-84
2022/02/02 13:02:51;;;;;;;16.42;5.78;;;;;;;3.49;70.59;95780.98;1757466;81;25834;-85
2022/02/02 13:05:24;;;;;;;9.95;4.15;;;;;;;3.50;70.56;95785.30;1757469;81;25672;-82
2022/02/02 13:07:57;;;;;;;11.28;3.45;;;;;;;3.52;70.46;95784.05;1757414;81;26467;-84
2022/02/02 13:10:27;;;;;;;8.55;3.85;;;;;;;3.52;69.95;95791.23;1757377;81;25784;-83
2022/02/02 13:13:24;;;;;;;9.33;3.87;;;;;;;3.44;70.08;95810.94;1757146;81;28414;-85
2022/02/02 13:15:53;;;;;;;8.10;3.35;;;;;;;3.44;70.07;95802.11;1756771;81;25827;-83
2022/02/02 13:18:29;;;;;;;10.28;3.80;;;;;;;3.45;70.00;95799.25;1756688;81;25812;-83
2022/02/02 13:21:16;;;;;;;13.88;3.80;;;;;;;3.42;69.95;95808.16;1729356;82;25777;-85
2022/02/02 13:26:46;;;;;;;9.48;3.62;;;;;;;3.33;69.95;95821.41;1729840;82;27428;-88
2022/02/02 13:29:43;;;;;;;9.55;3.72;;;;;;;3.30;69.97;95819.14;1729026;82;25756;-85
2022/02/02 13:32:20;;;;;;;8.58;3.75;;;;;;;3.30;69.96;95824.47;1728658;82;25751;-84
2022/02/02 13:35:14;;;;;;;12.78;4.03;;;;;;;3.30;69.99;95820.47;1756744;81;25702;-85
2022/02/02 13:43:37;;;;;;;14.68;5.85;;;;;;;3.31;69.93;95830.94;1757419;81;25270;-84
2022/02/02 13:48:53;;;;;;;7.85;4.75;;;;;;;3.33;69.87;95844.08;1757437;81;25772;-85
2022/02/02 14:31:16;;;;;;;46.10;20.35;;;;;;;3.47;69.61;95875.07;1728311;83;25757;-83
2022/02/02 14:33:45;;;;;;;46.02;21.95;;;;;;;3.47;69.58;95885.74;1727615;83;28346;-82
2022/02/02 14:36:15;;;;;;;28.25;12.93;;;;;;;3.50;69.56;95889.34;1728488;83;25752;-83
2022/02/02 14:38:56;;;;;;;33.05;13.72;;;;;;;3.48;69.42;95891.39;1728352;83;25732;-84
2022/02/02 14:41:36;;;;;;;37.78;17.02;;;;;;;3.47;69.49;95886.56;1728244;83;25858;-84
2022/02/02 14:44:03;;;;;;;39.03;16.50;;;;;;;3.47;69.50;95885.74;1728266;83;25817;-84
2022/02/02 14:46:35;;;;;;;27.98;11.45;;;;;;;3.49;69.64;95886.36;1728109;83;27435;-83
2022/02/02 14:49:01;;;;;;;22.13;10.63;;;;;;;3.50;69.61;95874.67;1726928;83;25764;-83
2022/02/02 14:51:36;;;;;;;22.30;8.98;;;;;;;3.52;69.54;95879.27;1727876;83;25766;-83
2022/02/02 15:24:43;;;;;;;19.20;8.13;;;;;;;2.91;71.03;95991.30;1637754;87;25962;-83
2022/02/02 15:29:36;;;;;;;17.20;9.70;;;;;;;2.48;71.54;96015.47;1625962;87;25747;-84
2022/02/02 15:31:57;;;;;;;19.52;9.60;;;;;;;2.38;71.92;96015.50;1625096;87;25858;-86
2022/02/02 15:34:32;;;;;;;19.73;9.88;;;;;;;2.31;72.17;96018.09;1625303;88;26288;-84
2022/02/02 15:37:19;;;;;;;18.00;10.10;;;;;;;2.14;72.26;96016.24;1625082;87;25797;-84
2022/02/02 15:39:32;;;;;;;16.62;9.13;;;;;;;2.08;72.64;96034.30;1708451;82;27395;-85
2022/02/02 15:42:15;;;;;;;14.58;8.43;;;;;;;2.07;72.85;96043.30;1729496;82;25915;-88
2022/02/02 16:01:22;;;;;;;22.75;10.90;;;;;;;1.75;73.95;96090.37;1699137;84;25855;-84
2022/02/02 16:03:10;;;;;;;15.30;8.05;;;;;;;1.66;74.16;96093.67;1745573;81;25702;-85
2022/02/02 16:05:53;;;;;;;16.85;8.15;;;;;;;1.65;74.36;96097.34;1754906;81;27551;-83
2022/02/02 16:08:16;;;;;;;32.00;15.35;;;;;;;1.60;74.54;96101.56;1754552;81;25859;-85
2022/02/02 16:13:28;;;;;;;43.58;20.68;;;;;;;1.49;74.93;96110.02;1753612;81;25735;-85
2022/02/02 16:15:43;;;;;;;35.03;18.23;;;;;;;1.50;75.01;96112.50;1748404;81;25860;-86
2022/02/02 16:18:33;;;;;;;33.02;17.07;;;;;;;1.49;75.12;96112.18;1751206;81;27582;-84
2022/02/02 16:31:34;;;;;;;27.93;13.48;;;;;;;1.65;75.36;96135.91;1751074;81;27375;-81
2022/02/02 16:36:45;;;;;;;17.35;8.15;;;;;;;1.63;75.48;96128.62;1751414;81;25822;-82
2022/02/02 16:39:14;;;;;;;17.57;8.55;;;;;;;1.66;75.57;96133.57;1750502;81;26568;-87
2022/02/02 16:44:24;;;;;;;15.48;7.72;;;;;;;1.63;75.81;96139.26;1751134;81;27267;-83
2022/02/02 16:46:52;;;;;;;14.33;7.12;;;;;;;1.67;75.95;96143.20;1751269;81;25271;-85
2022/02/02 16:49:20;;;;;;;12.90;7.30;;;;;;;1.67;76.02;96150.36;1751459;81;25798;-86
2022/02/02 16:51:46;;;;;;;14.45;7.70;;;;;;;1.64;76.07;96142.23;1751519;81;25758;-85
2022/02/02 16:54:23;;;;;;;22.48;11.38;;;;;;;1.61;76.12;96147.92;1751331;81;25670;-84
2022/02/02 17:29:50;;;;;;;15.78;7.70;;;;;;;1.58;76.96;96188.69;1763220;80;25840;-84
2022/02/02 17:32:27;;;;;;;14.47;8.15;;;;;;;1.60;77.05;96193.32;1761976;80;25896;-84
2022/02/02 17:34:51;;;;;;;14.47;8.08;;;;;;;1.60;77.09;96192.81;1753376;80;25677;-84
2022/02/02 18:15:48;;;;;;;6.72;3.70;;;;;;;1.04;77.79;96308.06;1733182;82;25722;-84
2022/02/02 18:19:56;;;;;;;9.10;5.20;;;;;;;0.95;78.03;96335.71;1674013;82;25381;-81
2022/02/02 18:22:26;;;;;;;4.33;2.92;;;;;;;0.93;78.07;96354.16;1736273;82;25994;-84
2022/02/02 18:25:33;;;;;;;14.73;6.72;;;;;;;0.92;78.01;96350.67;1738593;82;26524;-84
2022/02/02 18:27:34;;;;;;;9.18;4.62;;;;;;;0.89;78.15;96358.99;1724379;82;25686;-82
2022/02/02 18:30:18;;;;;;;12.93;7.05;;;;;;;0.86;78.17;96367.30;1737930;82;27403;-86
2022/02/02 18:35:01;;;;;;;10.53;5.03;;;;;;;0.89;78.35;96385.56;1738802;82;25654;-82
2022/02/02 18:43:15;;;;;;;12.63;6.97;;;;;;;1.04;78.41;96401.08;1736511;82;27520;-87
2022/02/02 18:53:45;;;;;;;12.93;6.70;;;;;;;1.05;78.58;96442.59;1736687;82;26352;-82
2022/02/02 18:58:19;;;;;;;14.25;7.75;;;;;;;1.05;78.46;96445.26;1736429;82;25844;-83
2022/02/02 19:39:50;;;;;;;17.90;9.73;;;;;;;0.75;78.37;96541.70;1691975;83;25787;-84
2022/02/02 19:52:44;;;;;;;14.18;8.38;;;;;;;0.88;78.14;96567.23;1724626;81;26433;-83
2022/02/02 20:06:03;;;;;;;15.45;8.98;;;;;;;0.63;78.46;96588.22;1724358;83;25292;-81
2022/02/02 20:08:34;;;;;;;18.82;9.68;;;;;;;0.60;78.52;96595.22;1743333;81;25809;-81
2022/02/02 20:11:05;;;;;;;14.28;8.65;;;;;;;0.59;78.71;96605.52;1751190;81;26837;-81
2022/02/02 20:13:27;;;;;;;13.18;7.03;;;;;;;0.60;78.90;96605.84;1752114;81;25753;-81
2022/02/02 20:15:54;;;;;;;9.98;6.60;;;;;;;0.60;78.92;96611.16;1722606;83;28068;-82
2022/02/02 20:18:23;;;;;;;11.22;7.05;;;;;;;0.52;79.00;96607.17;1754346;81;25826;-84
2022/02/02 20:20:49;;;;;;;12.78;8.30;;;;;;;0.53;79.01;96619.45;1722904;83;25763;-87
2022/02/02 20:23:18;;;;;;;14.55;8.78;;;;;;;0.56;79.00;96632.40;1754092;81;25749;-83
2022/02/02 20:25:50;;;;;;;14.68;8.95;;;;;;;0.58;78.94;96630.41;1724337;83;25846;-86
2022/02/02 20:28:13;;;;;;;14.18;8.73;;;;;;;0.62;78.91;96637.85;1721803;83;27569;-86
2022/02/02 20:30:39;;;;;;;14.50;8.30;;;;;;;0.68;78.85;96641.68;1750312;81;25799;-85
2022/02/02 20:33:06;;;;;;;16.95;9.03;;;;;;;0.68;78.68;96646.99;1754497;81;25702;-85
2022/02/02 20:35:33;;;;;;;14.87;8.70;;;;;;;0.68;78.58;96656.29;1754307;81;25765;-83
2022/02/02 20:38:00;;;;;;;16.75;8.43;;;;;;;0.70;78.59;96650.31;1754427;81;25701;-85
2022/02/02 20:40:27;;;;;;;17.35;9.73;;;;;;;0.71;78.58;96666.59;1754500;81;27049;-82
2022/02/02 20:43:05;;;;;;;17.25;10.08;;;;;;;0.73;78.61;96668.55;1754052;81;25933;-83
2022/02/02 21:14:44;;;;;;;15.70;9.38;;;;;;;0.45;78.64;96728.33;1756181;81;25903;-80
2022/02/02 21:17:21;;;;;;;20.45;10.80;;;;;;;0.43;78.71;96735.13;1759819;81;25691;-81
2022/02/02 21:20:11;;;;;;;16.23;9.23;;;;;;;0.46;78.73;96741.45;1760257;81;27571;-81
2022/02/02 21:22:31;;;;;;;14.58;8.38;;;;;;;0.53;78.68;96746.92;1758051;81;26301;-81
2022/02/02 21:25:30;;;;;;;16.37;11.43;;;;;;;0.54;78.62;96752.56;1760050;81;25737;-81
2022/02/02 21:27:40;;;;;;;18.77;9.65;;;;;;;0.52;78.67;96755.88;1756083;81;26447;-81
2022/02/02 21:30:08;;;;;;;16.65;9.20;;;;;;;0.56;78.58;96758.05;1760317;81;25669;-81
2022/02/02 21:32:35;;;;;;;23.00;10.63;;;;;;;0.59;78.52;96768.35;1760253;81;28436;-80
2022/02/02 21:35:07;;;;;;;21.23;11.15;;;;;;;0.62;78.50;96767.17;1760237;81;25914;-81
2022/02/02 21:37:36;;;;;;;19.20;10.28;;;;;;;0.67;78.47;96770.17;1760398;81;25793;-81
2022/02/02 21:40:17;;;;;;;22.60;11.93;;;;;;;0.68;78.42;96778.48;1760331;80;26550;-81
2022/02/02 21:42:33;;;;;;;22.77;12.40;;;;;;;0.66;78.45;96781.79;1758933;80;25451;-81
2022/02/02 21:45:00;;;;;;;21.00;11.55;;;;;;;0.63;78.45;96789.58;1760325;81;27406;-84
2022/02/02 21:47:26;;;;;;;16.87;9.40;;;;;;;0.64;78.44;96785.10;1760315;81;25690;-81
2022/02/02 21:49:56;;;;;;;12.03;8.55;;;;;;;0.63;78.27;96786.09;1760334;80;25900;-81
2022/02/02 21:52:21;;;;;;;15.50;9.23;;;;;;;0.65;78.21;96792.08;1760066;80;26027;-82